Time;durP1;ratioP1;P1;durP2;ratioP2;P2;SDS_P1;SDS_P2;PMS_P1;PMS_P2;Temp;Humidity;BMP_temperature;BMP_pressure;BME280_temperature;BME280_humidity;BME280_pressure;Samples;Min_cycle;Max_cycle;Signal;HPM_P1;HPM_P2
2022/10/29 00:00:51;;;;;;;7.28;3.88;;;;;;;19.95;62.16;102071.06;5030889;28;20572;-62
2022/10/29 00:03:16;;;;;;;10.55;4.00;;;;;;;19.98;61.71;102075.25;5031869;28;20237;-63
2022/10/29 00:05:41;;;;;;;9.43;4.00;;;;;;;19.92;62.23;102060.69;5052684;28;20369;-62
2022/10/29 00:08:07;;;;;;;6.47;3.90;;;;;;;19.98;62.14;102062.03;5033726;28;20040;-62
2022/10/29 00:10:33;;;;;;;8.17;4.27;;;;;;;19.92;61.94;102047.44;5027544;28;20266;-62
2022/10/29 00:13:02;;;;;;;7.78;4.32;;;;;;;19.91;62.08;102046.59;5023226;28;20312;-62
2022/10/29 00:15:27;;;;;;;9.13;4.40;;;;;;;19.90;61.85;102036.97;5027908;28;20033;-64
2022/10/29 00:17:53;;;;;;;7.75;4.05;;;;;;;19.93;61.92;102052.63;5032228;28;20493;-64
2022/10/29 00:20:19;;;;;;;6.15;4.10;;;;;;;19.88;62.04;102043.31;5029077;28;20131;-63
2022/10/29 00:22:45;;;;;;;9.52;4.18;;;;;;;19.96;61.94;102063.94;5032488;28;20049;-64
2022/10/29 00:25:10;;;;;;;10.00;3.78;;;;;;;19.87;61.97;102050.41;5032034;28;20025;-64
2022/10/29 00:27:35;;;;;;;10.00;4.67;;;;;;;19.86;61.72;102043.41;5037294;28;20047;-64
2022/10/29 00:30:01;;;;;;;8.10;4.43;;;;;;;19.92;62.03;102066.81;5042548;28;20262;-64
2022/10/29 00:32:26;;;;;;;6.72;3.80;;;;;;;19.87;61.73;102061.00;5024096;28;20354;-64
2022/10/29 00:34:51;;;;;;;9.67;4.60;;;;;;;19.87;61.71;102058.34;5022734;28;20036;-63
2022/10/29 00:37:16;;;;;;;7.87;3.73;;;;;;;19.92;61.82;102071.25;5023447;28;20419;-64
2022/10/29 00:39:42;;;;;;;7.03;3.80;;;;;;;19.85;62.17;102054.09;5022799;28;20822;-64
2022/10/29 00:42:15;;;;;;;10.20;4.77;;;;;;;19.90;61.91;102060.78;5023014;28;20274;-63
2022/10/29 00:44:40;;;;;;;7.78;4.88;;;;;;;19.84;61.96;102050.63;5041129;28;20327;-62
2022/10/29 00:47:30;;;;;;;6.53;4.03;;;;;;;19.87;61.94;102074.22;5042235;28;20025;-62
2022/10/29 00:50:06;;;;;;;8.82;4.38;;;;;;;19.84;61.66;102069.16;5037909;28;20026;-63
2022/10/29 00:52:36;;;;;;;9.50;4.30;;;;;;;19.89;61.78;102080.25;5022150;28;20072;-63
2022/10/29 00:55:06;;;;;;;10.45;4.40;;;;;;;19.81;61.53;102066.72;5041851;28;20124;-63
2022/10/29 00:57:40;;;;;;;6.30;3.72;;;;;;;19.79;61.80;102060.69;5026386;28;20068;-63
2022/10/29 01:00:06;;;;;;;8.20;4.20;;;;;;;19.84;61.73;102069.16;5029526;28;20506;-63
2022/10/29 01:02:34;;;;;;;7.05;4.30;;;;;;;19.84;61.50;102069.16;5042286;28;20941;-63
2022/10/29 01:05:01;;;;;;;6.85;4.22;;;;;;;19.85;61.68;102073.50;5022852;28;20504;-63
2022/10/29 01:07:27;;;;;;;8.90;3.85;;;;;;;19.79;61.64;102057.19;5021923;28;20033;-63
2022/10/29 01:09:52;;;;;;;10.38;5.00;;;;;;;19.85;61.54;102070.84;5039287;28;20495;-63
2022/10/29 01:12:36;;;;;;;8.15;4.65;;;;;;;19.84;61.57;102063.84;5041963;28;20442;-64
2022/10/29 01:15:25;;;;;;;9.60;3.92;;;;;;;19.84;61.32;102055.91;5030995;28;20049;-64
2022/10/29 01:18:21;;;;;;;9.02;4.28;;;;;;;19.83;61.59;102054.22;5034115;28;20060;-64
2022/10/29 01:21:13;;;;;;;8.82;4.13;;;;;;;19.84;61.55;102044.50;5018863;28;20036;-63
2022/10/29 01:23:58;;;;;;;11.20;4.28;;;;;;;19.83;61.17;102043.63;5021178;28;20132;-63
2022/10/29 01:26:57;;;;;;;7.38;4.38;;;;;;;19.79;61.50;102039.53;5021743;28;20060;-63
2022/10/29 01:29:47;;;;;;;7.95;4.18;;;;;;;19.82;61.48;102049.03;5021773;28;20780;-63
2022/10/29 01:32:19;;;;;;;8.00;4.15;;;;;;;19.82;61.70;102049.03;5022344;28;20040;-63
2022/10/29 01:35:04;;;;;;;9.15;4.60;;;;;;;19.78;61.30;102043.13;5036483;28;20035;-64
2022/10/29 01:38:08;;;;;;;10.02;4.40;;;;;;;19.80;61.19;102043.00;5034578;28;20024;-64
2022/10/29 01:40:48;;;;;;;11.60;4.90;;;;;;;19.72;61.35;102025.00;5028820;28;20408;-63
2022/10/29 01:43:19;;;;;;;8.75;4.32;;;;;;;19.80;61.36;102037.72;5032226;28;20120;-65
2022/10/29 01:45:53;;;;;;;7.30;4.32;;;;;;;19.72;61.37;102025.00;5038158;28;20079;-64
2022/10/29 01:48:25;;;;;;;8.10;4.40;;;;;;;19.75;61.21;102022.97;5021753;28;20040;-64
2022/10/29 01:50:53;;;;;;;8.80;4.60;;;;;;;19.77;61.28;102009.66;5037434;28;20491;-63
2022/10/29 01:53:20;;;;;;;6.78;4.30;;;;;;;19.67;61.39;101984.81;5030360;28;20029;-63
2022/10/29 01:55:45;;;;;;;9.15;4.50;;;;;;;19.77;61.11;102000.91;5037159;28;20106;-63
2022/10/29 01:58:11;;;;;;;8.02;4.45;;;;;;;19.52;61.01;101968.22;5040715;28;20059;-63
2022/10/29 02:01:17;;;;;;;7.32;4.15;;;;;;;19.74;61.18;102005.44;5041412;28;20029;-64
2022/10/29 02:03:56;;;;;;;11.15;4.60;;;;;;;19.71;61.22;101997.72;4994798;28;20846;-63
2022/10/29 02:06:24;;;;;;;7.80;4.28;;;;;;;19.74;61.23;102002.78;5024008;28;20059;-62
2022/10/29 02:09:04;;;;;;;7.75;4.25;;;;;;;19.68;60.90;101991.78;5021262;28;20069;-63
2022/10/29 02:11:51;;;;;;;7.70;4.57;;;;;;;19.68;60.98;102005.00;5021489;28;20370;-61
2022/10/29 02:14:22;;;;;;;7.55;4.38;;;;;;;19.73;61.07;102013.47;5027356;28;20519;-62
2022/10/29 02:16:49;;;;;;;6.95;4.32;;;;;;;19.65;60.99;101984.06;5031673;28;20041;-62
2022/10/29 02:19:15;;;;;;;11.70;4.43;;;;;;;19.64;60.81;101985.84;5021098;28;20033;-63
2022/10/29 02:21:41;;;;;;;7.78;4.50;;;;;;;19.70;61.25;101995.16;5021047;28;20025;-62
2022/10/29 02:24:07;;;;;;;7.97;4.47;;;;;;;19.66;60.84;101991.03;5021358;28;20056;-62
2022/10/29 02:26:32;;;;;;;6.72;4.40;;;;;;;19.72;60.79;101993.25;5030751;28;20029;-62
2022/10/29 02:28:58;;;;;;;9.10;4.10;;;;;;;19.63;60.39;101970.94;5021221;28;20120;-63
2022/10/29 02:31:23;;;;;;;7.07;3.85;;;;;;;19.67;60.62;101974.22;5020905;28;20293;-64
2022/10/29 02:33:49;;;;;;;6.70;4.63;;;;;;;19.69;60.91;101975.81;5020608;28;20148;-63
2022/10/29 02:36:14;;;;;;;7.43;4.55;;;;;;;19.64;60.87;101955.94;5025188;28;20088;-63
2022/10/29 02:38:39;;;;;;;6.67;4.50;;;;;;;19.64;60.63;101959.41;5026105;28;20803;-63
2022/10/29 02:41:04;;;;;;;6.95;4.53;;;;;;;19.62;60.50;101955.19;5044619;28;20351;-63
2022/10/29 02:43:30;;;;;;;6.90;4.68;;;;;;;19.68;60.63;101971.47;5044613;28;20039;-63
2022/10/29 02:46:17;;;;;;;8.17;4.97;;;;;;;19.68;60.66;101968.00;5030114;28;20045;-63
2022/10/29 02:48:43;;;;;;;8.05;4.70;;;;;;;19.60;60.77;101962.38;5024830;28;20283;-63
2022/10/29 02:51:09;;;;;;;7.40;4.72;;;;;;;19.61;60.48;101961.44;5032404;28;20055;-63
2022/10/29 02:53:34;;;;;;;7.82;4.38;;;;;;;19.66;60.63;101972.53;5044544;28;20052;-63
2022/10/29 02:55:59;;;;;;;7.85;4.45;;;;;;;19.60;60.38;101957.06;5041798;28;20236;-63
2022/10/29 02:58:25;;;;;;;7.25;4.20;;;;;;;19.58;60.43;101952.75;5041597;28;20129;-63
2022/10/29 03:00:51;;;;;;;8.35;4.40;;;;;;;19.66;60.46;101969.88;5027571;28;20066;-64
2022/10/29 03:03:16;;;;;;;9.18;4.50;;;;;;;19.59;60.49;101956.25;5032981;28;20547;-63
2022/10/29 03:05:42;;;;;;;8.18;4.35;;;;;;;19.64;60.34;101955.94;5033868;28;20037;-62
2022/10/29 03:08:07;;;;;;;7.23;4.30;;;;;;;19.62;60.44;101955.19;5033395;28;20073;-63
2022/10/29 03:10:32;;;;;;;8.98;4.32;;;;;;;19.64;60.52;101953.28;5024453;28;20270;-63
2022/10/29 03:12:58;;;;;;;6.85;4.45;;;;;;;19.64;60.36;101961.22;5024692;28;20029;-63
2022/10/29 03:15:24;;;;;;;8.15;5.13;;;;;;;19.65;60.40;101952.34;5036722;28;20044;-63
2022/10/29 03:17:49;;;;;;;7.35;4.85;;;;;;;19.50;60.32;101925.16;5044023;28;20040;-63
2022/10/29 03:20:14;;;;;;;7.23;4.30;;;;;;;19.56;60.51;101932.66;5044229;28;20104;-63
2022/10/29 03:22:39;;;;;;;7.32;4.22;;;;;;;19.56;60.25;101936.13;5034022;28;20618;-63
2022/10/29 03:25:05;;;;;;;6.53;4.00;;;;;;;19.61;60.37;101942.91;5025129;28;20029;-63
2022/10/29 03:27:30;;;;;;;6.68;4.15;;;;;;;19.37;60.60;101907.50;5034265;28;20361;-63
2022/10/29 03:29:56;;;;;;;8.10;4.57;;;;;;;19.59;60.19;101935.09;5034963;28;20476;-63
2022/10/29 03:32:21;;;;;;;6.00;4.43;;;;;;;19.62;59.96;101934.03;5032720;28;20274;-62
2022/10/29 03:34:46;;;;;;;7.75;4.10;;;;;;;19.54;60.33;101924.00;5027547;28;20025;-62
2022/10/29 03:37:11;;;;;;;7.47;4.43;;;;;;;19.55;60.00;101923.03;5030568;28;20033;-61
2022/10/29 03:39:37;;;;;;;9.07;4.68;;;;;;;19.52;60.21;101920.63;5035886;28;20354;-63
2022/10/29 03:42:02;;;;;;;10.30;4.60;;;;;;;19.53;59.99;101920.50;5043353;28;20037;-63
2022/10/29 03:44:28;;;;;;;8.15;4.30;;;;;;;19.57;60.57;101923.78;5025652;28;20345;-63
2022/10/29 03:46:53;;;;;;;8.75;5.20;;;;;;;19.52;60.17;101910.06;5032813;28;20025;-63
2022/10/29 03:49:19;;;;;;;7.57;4.10;;;;;;;19.58;60.21;101918.38;5040600;28;20116;-63
2022/10/29 03:51:45;;;;;;;8.50;4.30;;;;;;;19.52;59.93;101910.88;5033342;28;20686;-63
2022/10/29 03:54:10;;;;;;;8.52;4.90;;;;;;;19.52;60.17;101912.69;5032533;28;20087;-63
2022/10/29 03:56:35;;;;;;;9.95;4.60;;;;;;;19.53;60.10;101903.78;5033453;28;20041;-63
2022/10/29 03:59:01;;;;;;;6.17;4.20;;;;;;;19.53;60.18;101896.69;5029221;28;20052;-63
2022/10/29 04:01:26;;;;;;;8.70;4.40;;;;;;;19.56;60.06;101901.75;5031660;28;20265;-63
2022/10/29 04:03:51;;;;;;;7.57;4.23;;;;;;;19.50;59.97;101893.44;5040659;28;20796;-63
2022/10/29 04:06:17;;;;;;;10.30;4.53;;;;;;;19.49;59.99;101887.31;5043411;28;20273;-63
2022/10/29 04:08:42;;;;;;;9.52;4.72;;;;;;;19.51;60.14;101879.25;5043290;28;20286;-63
2022/10/29 04:11:10;;;;;;;6.25;4.65;;;;;;;19.48;60.15;101879.47;5035973;28;20049;-63
2022/10/29 04:13:35;;;;;;;8.48;5.50;;;;;;;19.56;59.95;101898.28;5023349;28;20436;-63
2022/10/29 04:16:00;;;;;;;7.30;4.40;;;;;;;19.48;60.15;101882.97;5023113;28;20021;-63
2022/10/29 04:18:26;;;;;;;7.47;4.78;;;;;;;19.53;59.99;101893.22;5023372;28;20750;-63
2022/10/29 04:20:52;;;;;;;10.60;4.90;;;;;;;19.52;59.77;101880.97;5034149;28;20029;-63
2022/10/29 04:23:18;;;;;;;7.32;4.40;;;;;;;19.53;59.85;101886.13;5036939;28;20049;-63
2022/10/29 04:25:53;;;;;;;7.10;4.45;;;;;;;19.53;59.85;101880.00;5042785;28;20037;-63
2022/10/29 04:28:18;;;;;;;7.03;4.38;;;;;;;19.48;60.01;101876.84;5024576;28;20038;-63
2022/10/29 04:30:43;;;;;;;8.60;4.40;;;;;;;19.47;59.94;101865.44;5034877;28;20091;-63
2022/10/29 04:33:09;;;;;;;8.52;5.05;;;;;;;19.54;59.72;101879.88;5021781;28;20128;-63
2022/10/29 04:35:34;;;;;;;9.55;4.30;;;;;;;19.52;60.03;101875.69;5023064;28;20035;-64
2022/10/29 04:38:06;;;;;;;8.23;4.50;;;;;;;19.53;60.09;101870.25;5028046;28;20162;-63
2022/10/29 04:40:32;;;;;;;8.55;5.00;;;;;;;19.52;60.11;101879.16;5031790;28;20267;-64
2022/10/29 04:42:57;;;;;;;8.70;4.67;;;;;;;19.52;59.88;101876.50;5022822;28;20351;-64
2022/10/29 04:45:22;;;;;;;7.22;4.72;;;;;;;19.46;60.07;101861.09;5022404;28;20374;-63
2022/10/29 04:47:48;;;;;;;5.97;4.10;;;;;;;19.46;60.28;101868.19;5023028;28;20069;-61
2022/10/29 04:50:13;;;;;;;7.00;4.25;;;;;;;19.52;59.79;101883.63;5022812;28;20075;-64
2022/10/29 04:52:38;;;;;;;7.57;4.53;;;;;;;19.44;59.74;101870.06;5023606;28;20040;-63
2022/10/29 04:55:04;;;;;;;9.95;4.30;;;;;;;19.46;59.74;101866.38;5027555;28;20060;-62
2022/10/29 04:57:29;;;;;;;8.40;4.55;;;;;;;19.52;59.92;101879.16;5022840;28;20041;-63
2022/10/29 04:59:54;;;;;;;7.72;4.30;;;;;;;19.49;59.78;101868.81;5021140;28;20458;-63
2022/10/29 05:02:20;;;;;;;8.60;4.63;;;;;;;19.44;60.22;101855.06;5022671;28;20033;-63
2022/10/29 05:04:45;;;;;;;8.38;4.80;;;;;;;19.51;59.80;101866.88;5037404;28;20282;-63
2022/10/29 05:07:10;;;;;;;7.53;4.27;;;;;;;19.41;59.69;101855.28;5022648;28;22429;-63
2022/10/29 05:09:35;;;;;;;8.88;5.38;;;;;;;19.45;59.80;101867.31;5030124;28;20258;-62
2022/10/29 05:12:01;;;;;;;7.30;4.50;;;;;;;19.49;59.88;101871.44;5042299;28;20056;-61
2022/10/29 05:14:26;;;;;;;7.80;4.68;;;;;;;19.43;59.79;101858.66;5035870;28;20263;-62
2022/10/29 05:16:51;;;;;;;8.60;4.70;;;;;;;19.51;59.77;101866.03;5022447;28;20156;-62
2022/10/29 05:19:16;;;;;;;6.63;4.57;;;;;;;19.49;59.86;101860.88;5031602;28;20274;-63
2022/10/29 05:21:42;;;;;;;7.40;4.47;;;;;;;19.50;59.90;101859.06;5025276;28;20291;-62
2022/10/29 05:24:07;;;;;;;9.13;4.50;;;;;;;19.42;59.71;101846.38;5027967;28;20262;-62
2022/10/29 05:26:32;;;;;;;8.13;4.43;;;;;;;19.50;59.63;101864.34;5037264;28;20737;-63
2022/10/29 05:28:57;;;;;;;9.13;4.80;;;;;;;19.48;59.82;101853.88;5038639;28;20033;-62
2022/10/29 05:31:23;;;;;;;8.37;4.43;;;;;;;19.47;59.68;101846.06;5041550;28;20033;-63
2022/10/29 05:33:49;;;;;;;7.18;4.60;;;;;;;19.42;59.51;101841.09;5041768;28;20595;-63
2022/10/29 05:36:14;;;;;;;8.48;4.53;;;;;;;19.43;59.93;101837.50;5041736;28;20135;-64
2022/10/29 05:38:39;;;;;;;8.50;4.37;;;;;;;19.49;59.99;101852.94;5023826;28;20033;-61
2022/10/29 05:41:04;;;;;;;7.60;4.27;;;;;;;19.43;59.70;101834.03;5033604;28;20257;-64
2022/10/29 05:43:30;;;;;;;8.30;4.45;;;;;;;19.50;60.12;101841.41;5041492;28;20348;-64
2022/10/29 05:45:55;;;;;;;8.17;4.30;;;;;;;19.51;60.11;101834.31;5026950;28;20037;-63
2022/10/29 05:48:20;;;;;;;6.40;4.40;;;;;;;19.51;60.06;101834.31;5035072;28;20287;-62
2022/10/29 05:50:45;;;;;;;7.43;4.15;;;;;;;19.47;60.02;101825.78;5021597;28;20545;-63
2022/10/29 05:53:13;;;;;;;7.85;4.55;;;;;;;19.55;60.23;101838.41;5021767;28;20034;-61
2022/10/29 05:55:39;;;;;;;6.85;3.85;;;;;;;19.55;60.04;101827.84;5034449;28;20450;-62
2022/10/29 05:58:08;;;;;;;7.10;4.35;;;;;;;19.56;60.02;101826.91;5023292;28;20108;-63
2022/10/29 06:00:36;;;;;;;8.80;4.32;;;;;;;19.50;60.23;101819.41;5038933;28;20032;-61
2022/10/29 06:03:01;;;;;;;7.72;4.70;;;;;;;19.50;60.00;101816.75;5031637;28;20045;-62
2022/10/29 06:05:27;;;;;;;7.25;4.53;;;;;;;19.48;60.37;101811.56;5021251;28;20034;-62
2022/10/29 06:07:56;;;;;;;8.35;4.20;;;;;;;19.50;59.96;101816.75;5038974;28;20059;-62
2022/10/29 06:10:23;;;;;;;6.95;4.55;;;;;;;19.56;60.39;101827.72;5029223;28;20033;-63
2022/10/29 06:12:49;;;;;;;9.75;4.93;;;;;;;19.51;60.04;101824.56;5021128;28;20073;-63
2022/10/29 06:15:14;;;;;;;6.40;4.35;;;;;;;19.49;59.81;101834.44;5021242;28;20492;-63
2022/10/29 06:17:41;;;;;;;7.03;4.38;;;;;;;19.54;60.11;101847.31;5021296;28;20121;-62
2022/10/29 06:20:07;;;;;;;7.03;4.45;;;;;;;19.53;60.02;101846.47;5021584;28;20115;-63
2022/10/29 06:22:33;;;;;;;8.57;4.68;;;;;;;19.53;60.27;101843.81;5021168;28;20065;-62
2022/10/29 06:24:58;;;;;;;8.57;4.50;;;;;;;19.52;60.19;101850.06;5036253;28;20096;-61
2022/10/29 06:27:24;;;;;;;7.83;4.30;;;;;;;19.56;60.50;101855.97;5035219;28;20281;-61
2022/10/29 06:29:49;;;;;;;8.15;4.82;;;;;;;19.49;60.58;101836.25;5021159;28;20263;-62
2022/10/29 06:32:15;;;;;;;7.75;4.50;;;;;;;19.57;60.40;101840.00;5037506;28;20035;-61
2022/10/29 06:34:40;;;;;;;7.03;4.47;;;;;;;19.57;60.36;101842.66;5040564;28;20068;-62
2022/10/29 06:37:05;;;;;;;6.63;4.37;;;;;;;19.57;60.58;101853.22;5040894;28;20276;-64
2022/10/29 06:39:30;;;;;;;5.93;4.03;;;;;;;19.56;60.42;101843.59;5025345;28;20289;-63
2022/10/29 06:41:56;;;;;;;8.77;4.60;;;;;;;19.60;60.88;101846.88;5034449;28;20288;-63
2022/10/29 06:44:21;;;;;;;7.38;4.95;;;;;;;19.58;60.49;101848.78;5040249;28;20800;-63
2022/10/29 06:46:46;;;;;;;8.60;4.60;;;;;;;19.63;60.95;101859.03;5040476;28;20029;-63
2022/10/29 06:49:11;;;;;;;7.70;4.50;;;;;;;19.57;60.68;101847.09;5037410;28;20033;-63
2022/10/29 06:51:37;;;;;;;9.40;4.93;;;;;;;19.64;60.91;101852.78;5039081;28;20342;-63
2022/10/29 06:54:02;;;;;;;7.07;4.57;;;;;;;19.62;61.00;101849.41;5036306;28;20309;-63
2022/10/29 06:56:27;;;;;;;7.53;4.13;;;;;;;19.61;60.84;101848.56;5020871;28;20267;-64
2022/10/29 06:58:53;;;;;;;9.60;4.22;;;;;;;19.64;60.71;101850.97;5020694;28;20470;-64
2022/10/29 07:01:18;;;;;;;7.87;4.40;;;;;;;19.63;60.66;101862.53;5031250;28;20025;-64
2022/10/29 07:03:43;;;;;;;7.00;4.67;;;;;;;19.69;60.95;101869.16;5037692;28;20296;-62
2022/10/29 07:06:08;;;;;;;6.80;4.20;;;;;;;19.64;60.86;101855.44;5040575;28;20630;-64
2022/10/29 07:08:33;;;;;;;9.75;4.45;;;;;;;19.64;61.20;101847.50;5040086;28;20269;-63
2022/10/29 07:11:01;;;;;;;10.37;4.90;;;;;;;19.70;60.85;101850.53;5040680;28;20021;-62
2022/10/29 07:13:27;;;;;;;8.32;4.85;;;;;;;19.71;60.75;101851.38;5026806;28;20308;-63
2022/10/29 07:15:52;;;;;;;6.90;4.40;;;;;;;19.60;60.93;101833.66;5022786;28;20130;-61
2022/10/29 07:18:17;;;;;;;8.68;4.75;;;;;;;19.71;61.19;101848.72;5031174;28;20124;-61
2022/10/29 07:20:44;;;;;;;8.55;4.80;;;;;;;19.66;61.38;101835.88;5029685;28;20040;-61
2022/10/29 07:23:11;;;;;;;8.43;4.75;;;;;;;19.71;61.24;101827.56;5044024;28;20053;-62
2022/10/29 07:25:37;;;;;;;10.35;4.68;;;;;;;19.68;60.89;101815.44;5043826;28;20055;-61
2022/10/29 07:28:04;;;;;;;7.35;4.40;;;;;;;19.62;60.86;101807.13;5042111;28;20083;-61
2022/10/29 07:30:30;;;;;;;8.68;4.60;;;;;;;19.73;61.29;101823.88;5043979;28;20094;-61
2022/10/29 07:32:55;;;;;;;7.35;4.07;;;;;;;19.68;61.01;101812.78;5040771;28;20033;-62
2022/10/29 07:35:20;;;;;;;10.10;4.80;;;;;;;19.71;61.72;101815.22;5024342;28;20026;-62
2022/10/29 07:37:45;;;;;;;8.17;4.33;;;;;;;19.70;61.16;101816.16;5023605;28;20274;-62
2022/10/29 07:40:11;;;;;;;7.63;4.00;;;;;;;19.79;61.48;101820.00;5024128;28;20265;-63
2022/10/29 07:42:37;;;;;;;9.75;4.25;;;;;;;19.78;61.31;101820.09;5023868;28;20302;-62
2022/10/29 07:45:02;;;;;;;6.43;4.30;;;;;;;19.81;61.36;101825.16;5023885;28;20033;-62
2022/10/29 07:47:27;;;;;;;9.02;4.50;;;;;;;19.82;61.02;101824.19;5023415;28;20321;-62
2022/10/29 07:49:53;;;;;;;8.13;4.63;;;;;;;19.81;60.80;101823.34;5024319;28;20091;-62
2022/10/29 07:52:18;;;;;;;9.40;4.10;;;;;;;19.74;61.05;101807.06;5025637;28;20381;-62
2022/10/29 07:54:43;;;;;;;9.73;4.50;;;;;;;19.76;60.95;101822.84;5033884;28;20246;-62
2022/10/29 07:57:08;;;;;;;8.27;4.22;;;;;;;19.82;60.84;101833.00;5036327;28;20033;-62
2022/10/29 07:59:34;;;;;;;8.60;4.73;;;;;;;19.83;61.14;101832.00;5043490;28;20373;-62
2022/10/29 08:01:59;;;;;;;10.67;4.77;;;;;;;19.78;61.19;101812.16;5043016;28;20353;-61
2022/10/29 08:04:24;;;;;;;7.70;5.20;;;;;;;19.81;60.87;101822.53;5043064;28;20254;-61
2022/10/29 08:06:49;;;;;;;7.90;4.83;;;;;;;19.77;61.25;101819.22;5040963;28;20267;-62
2022/10/29 08:09:15;;;;;;;6.85;4.25;;;;;;;19.70;60.95;101802.09;5043262;28;20592;-62
2022/10/29 08:11:40;;;;;;;8.48;4.40;;;;;;;19.76;61.18;101814.91;5037615;28;20025;-67
2022/10/29 08:14:05;;;;;;;8.15;4.75;;;;;;;19.73;61.14;101805.38;5023200;28;20408;-61
2022/10/29 08:16:30;;;;;;;11.35;4.53;;;;;;;19.73;60.99;101807.19;5030390;28;20033;-62
2022/10/29 08:18:56;;;;;;;7.97;4.28;;;;;;;19.75;61.09;101803.44;5023609;28;20163;-61
2022/10/29 08:21:21;;;;;;;7.88;4.18;;;;;;;19.78;61.08;101813.00;5029554;28;20480;-67
2022/10/29 08:23:46;;;;;;;9.13;4.70;;;;;;;19.72;61.17;101805.47;5027346;28;20038;-73
2022/10/29 08:26:12;;;;;;;9.88;4.68;;;;;;;19.80;61.49;101816.38;5022734;28;20030;-75
2022/10/29 08:28:37;;;;;;;11.30;4.20;;;;;;;19.83;61.15;101810.84;5022579;28;20048;-77
2022/10/29 08:31:02;;;;;;;9.30;4.30;;;;;;;19.83;60.89;101810.84;5022330;28;20025;-75
2022/10/29 08:33:28;;;;;;;11.32;4.40;;;;;;;19.88;61.35;101806.06;5030628;28;20266;-74
2022/10/29 08:35:53;;;;;;;10.07;4.80;;;;;;;20.00;60.89;101814.91;5041305;28;20025;-74
2022/10/29 08:38:22;;;;;;;8.25;3.95;;;;;;;20.00;60.75;101806.13;5022672;28;20302;-73
2022/10/29 08:41:19;;;;;;;8.20;4.13;;;;;;;20.04;60.63;101812.88;5022511;28;20026;-72
2022/10/29 08:44:15;;;;;;;11.63;4.78;;;;;;;20.05;60.72;101802.19;5028058;28;20040;-71
2022/10/29 08:46:55;;;;;;;8.63;3.90;;;;;;;20.09;60.70;101795.72;5030376;28;20118;-73
2022/10/29 08:49:27;;;;;;;8.13;3.95;;;;;;;20.15;60.38;101810.25;5034674;28;20534;-65
2022/10/29 08:52:26;;;;;;;7.35;4.10;;;;;;;20.07;60.54;101796.78;5025586;28;20034;-66
2022/10/29 08:55:04;;;;;;;9.48;3.88;;;;;;;20.09;60.42;101792.19;5023199;28;20163;-66
2022/10/29 08:57:35;;;;;;;7.88;3.85;;;;;;;20.12;60.44;101797.25;5031560;28;20025;-66
2022/10/29 09:00:06;;;;;;;10.85;4.93;;;;;;;20.11;60.49;101796.44;5035224;28;20025;-66
2022/10/29 09:02:31;;;;;;;9.88;4.22;;;;;;;20.14;60.32;101798.00;5038295;28;20441;-63
2022/10/29 09:04:57;;;;;;;9.57;4.15;;;;;;;20.11;60.18;101785.84;5036809;28;20041;-67
2022/10/29 09:07:37;;;;;;;10.40;4.15;;;;;;;20.11;60.48;101787.66;5025859;28;20067;-66
2022/10/29 09:10:40;;;;;;;10.05;4.22;;;;;;;20.21;60.48;101801.03;5025569;28;20036;-67
2022/10/29 09:13:31;;;;;;;8.43;4.05;;;;;;;20.17;60.15;101788.97;5022570;28;20111;-66
2022/10/29 09:16:20;;;;;;;11.25;4.25;;;;;;;20.20;60.44;101800.19;5025488;28;20033;-66
2022/10/29 09:19:18;;;;;;;6.82;3.45;;;;;;;20.20;60.38;101801.97;5033393;28;20191;-64
2022/10/29 09:22:10;;;;;;;8.32;4.00;;;;;;;20.20;60.69;101805.50;5025462;28;20045;-66
2022/10/29 09:24:44;;;;;;;7.13;4.13;;;;;;;20.20;60.42;101801.97;5028948;28;20087;-66
2022/10/29 09:27:15;;;;;;;10.95;3.65;;;;;;;20.15;60.47;101798.84;5025004;28;20048;-67
2022/10/29 09:30:09;;;;;;;14.38;4.55;;;;;;;20.20;60.55;101794.03;5036475;28;20021;-65
2022/10/29 09:32:41;;;;;;;7.30;4.10;;;;;;;20.14;60.65;101768.03;5020562;28;20219;-67
2022/10/29 09:35:16;;;;;;;8.20;3.38;;;;;;;20.12;60.35;101778.75;5036786;28;20033;-66
2022/10/29 09:37:48;;;;;;;8.45;4.00;;;;;;;20.20;60.32;101792.25;5027935;28;20048;-65
2022/10/29 09:40:28;;;;;;;7.55;3.78;;;;;;;20.14;60.70;101774.19;5024194;28;20123;-65
2022/10/29 09:42:54;;;;;;;12.20;4.50;;;;;;;20.14;60.64;101779.50;5033770;28;20035;-65
2022/10/29 09:45:24;;;;;;;7.53;3.78;;;;;;;20.22;60.54;101784.19;5032090;28;20119;-66
2022/10/29 09:48:08;;;;;;;8.80;3.53;;;;;;;20.21;60.93;101779.88;5025494;28;20060;-66
2022/10/29 09:50:55;;;;;;;7.35;5.10;;;;;;;20.22;60.78;101773.59;5030057;28;20482;-65
2022/10/29 09:53:21;;;;;;;7.80;3.60;;;;;;;20.15;61.01;101759.16;5022659;28;20037;-65
2022/10/29 09:55:53;;;;;;;6.95;3.65;;;;;;;20.16;60.58;101755.56;5025565;28;20029;-66
2022/10/29 09:58:22;;;;;;;10.05;3.72;;;;;;;20.13;60.44;101748.69;5021763;28;20041;-67
2022/10/29 10:00:48;;;;;;;8.23;4.18;;;;;;;20.22;60.58;101757.72;5034910;28;20051;-65
2022/10/29 10:03:25;;;;;;;5.90;3.47;;;;;;;20.22;60.85;101755.94;5036590;28;20033;-68
2022/10/29 10:06:06;;;;;;;8.68;3.30;;;;;;;20.21;61.00;101759.53;5039145;28;20468;-65
2022/10/29 10:08:32;;;;;;;7.57;3.63;;;;;;;20.22;60.72;101755.06;5031162;28;20052;-66
2022/10/29 10:11:04;;;;;;;7.93;3.67;;;;;;;20.19;60.63;101731.50;5035359;28;20041;-66
2022/10/29 10:13:37;;;;;;;9.18;3.60;;;;;;;20.25;60.89;101744.25;5026502;28;20032;-76
2022/10/29 10:16:04;;;;;;;8.25;3.80;;;;;;;20.23;60.98;101754.94;5027222;28;20144;-67
2022/10/29 10:18:30;;;;;;;8.23;3.40;;;;;;;20.22;60.99;101749.78;5031806;28;20033;-67
2022/10/29 10:21:05;;;;;;;9.23;3.50;;;;;;;20.18;61.14;101745.69;5026509;28;20056;-67
2022/10/29 10:23:52;;;;;;;8.60;3.85;;;;;;;20.24;61.23;101755.81;5024553;28;20071;-72
2022/10/29 10:26:32;;;;;;;7.65;3.40;;;;;;;20.27;61.29;101747.63;5022807;28;20056;-74
2022/10/29 10:29:31;;;;;;;13.93;3.55;;;;;;;20.28;61.17;101754.59;5027310;28;20030;-74
2022/10/29 10:31:56;;;;;;;8.02;4.15;;;;;;;20.33;60.77;101743.66;5029594;28;20033;-78
2022/10/29 10:34:39;;;;;;;8.63;3.47;;;;;;;20.27;60.92;101729.94;5023533;28;20033;-65
2022/10/29 10:37:16;;;;;;;6.88;3.17;;;;;;;20.28;61.09;101731.66;5026883;28;20061;-65
2022/10/29 10:39:59;;;;;;;7.38;3.30;;;;;;;20.31;60.81;101738.47;5037164;28;20090;-65
2022/10/29 10:42:27;;;;;;;9.73;3.38;;;;;;;20.27;60.60;101726.47;5040178;28;20032;-65
2022/10/29 10:44:58;;;;;;;8.15;3.33;;;;;;;20.27;60.73;101722.00;5040301;28;20360;-64
2022/10/29 10:47:28;;;;;;;6.50;3.55;;;;;;;20.33;60.81;101727.78;5040638;28;20021;-65
2022/10/29 10:50:08;;;;;;;7.72;3.53;;;;;;;20.22;60.57;101710.06;5040538;28;20105;-66
2022/10/29 10:52:34;;;;;;;6.40;3.58;;;;;;;20.31;60.79;101719.97;5040760;28;20086;-65
2022/10/29 10:55:05;;;;;;;10.90;3.72;;;;;;;20.25;61.12;101707.19;5035778;28;20030;-65
2022/10/29 10:57:36;;;;;;;7.75;3.47;;;;;;;20.36;61.27;101714.31;5036447;28;21033;-67
2022/10/29 11:00:14;;;;;;;6.93;3.70;;;;;;;20.37;61.19;101719.50;5043320;28;20029;-68
2022/10/29 11:02:47;;;;;;;11.88;3.90;;;;;;;20.37;60.80;101718.66;5038540;28;20047;-69
2022/10/29 11:05:30;;;;;;;9.77;3.90;;;;;;;20.37;60.88;101719.50;5024965;28;20037;-68
2022/10/29 11:08:11;;;;;;;7.88;3.30;;;;;;;20.32;60.82;101710.22;5026296;28;20084;-80
2022/10/29 11:10:48;;;;;;;10.35;3.55;;;;;;;20.38;60.74;101713.25;5031769;28;20071;-79
2022/10/29 11:13:19;;;;;;;6.47;3.35;;;;;;;20.36;61.09;101709.00;5043916;28;20024;-74
2022/10/29 11:16:11;;;;;;;8.63;3.78;;;;;;;20.43;60.92;101712.88;5030751;28;20034;-68
2022/10/29 11:18:58;;;;;;;8.90;3.65;;;;;;;20.47;60.96;101714.31;5018721;28;20124;-71
2022/10/29 11:21:30;;;;;;;8.60;3.55;;;;;;;20.38;60.49;101699.19;5039102;28;20043;-71
2022/10/29 11:24:19;;;;;;;7.10;3.50;;;;;;;20.44;60.30;101696.03;5032717;28;20041;-72
2022/10/29 11:26:52;;;;;;;13.20;3.80;;;;;;;20.52;60.02;101712.19;5023694;28;20091;-72
2022/10/29 11:29:30;;;;;;;9.85;3.72;;;;;;;20.47;60.13;101704.59;5028370;28;20043;-70
2022/10/29 11:32:30;;;;;;;9.80;4.15;;;;;;;20.51;60.39;101704.34;5038843;28;20346;-72
2022/10/29 11:35:04;;;;;;;12.07;4.03;;;;;;;20.56;60.46;101702.19;5025635;28;20136;-68
2022/10/29 11:38:01;;;;;;;13.00;4.20;;;;;;;20.56;60.14;101704.84;5040724;28;20123;-67